Time;durP1;ratioP1;P1;durP2;ratioP2;P2;SDS_P1;SDS_P2;PMS_P1;PMS_P2;Temp;Humidity;BMP_temperature;BMP_pressure;BME280_temperature;BME280_humidity;BME280_pressure;Samples;Min_cycle;Max_cycle;Signal;HPM_P1;HPM_P2
2023/11/13 14:25:54;;;;;;;7.32;2.80;;;;;;;13.15;96.47;99564.16;5023156;28;96753;-72
2023/11/13 14:28:23;;;;;;;5.97;2.60;;;;;;;13.62;97.93;99562.31;5030383;28;107000;-72
2023/11/13 14:30:51;;;;;;;6.68;2.20;;;;;;;14.19;96.79;99585.25;5027095;28;124464;-72
2023/11/13 14:33:19;;;;;;;6.28;2.30;;;;;;;14.73;94.73;99574.72;4996737;28;124748;-72
2023/11/13 14:35:47;;;;;;;9.77;2.40;;;;;;;15.20;92.66;99567.25;5005106;28;107231;-72
2023/11/13 14:38:15;;;;;;;5.15;1.85;;;;;;;15.56;91.14;99578.41;5005159;28;107069;-72
2023/11/13 14:40:42;;;;;;;7.68;2.08;;;;;;;15.88;89.57;99572.13;4997817;28;124630;-72
2023/11/13 14:43:10;;;;;;;5.68;1.98;;;;;;;16.13;88.33;99571.66;4998025;28;123971;-72
2023/11/13 14:45:38;;;;;;;5.40;1.98;;;;;;;16.35;87.39;99569.75;4999030;28;107412;-72
2023/11/13 14:48:06;;;;;;;5.75;2.05;;;;;;;16.53;86.50;99573.41;5000645;28;106331;-72
2023/11/13 14:50:35;;;;;;;5.03;2.10;;;;;;;16.68;85.64;99586.38;4998382;28;124329;-72
2023/11/13 14:53:02;;;;;;;5.53;1.80;;;;;;;16.81;85.08;99576.25;4998210;28;125502;-72
2023/11/13 14:55:30;;;;;;;5.72;1.77;;;;;;;16.90;84.44;99575.44;5006467;28;107568;-72
2023/11/13 14:57:57;;;;;;;6.90;1.77;;;;;;;17.01;83.68;99592.31;4994507;28;107500;-73
2023/11/13 15:00:26;;;;;;;7.35;2.10;;;;;;;17.09;83.05;99589.81;4990384;28;124199;-72
2023/11/13 15:02:54;;;;;;;5.80;2.00;;;;;;;17.16;82.79;99596.28;5029338;27;124234;-72
2023/11/13 15:05:22;;;;;;;7.35;1.80;;;;;;;17.20;82.11;99586.97;5000660;28;107446;-72
2023/11/13 15:07:49;;;;;;;7.18;2.00;;;;;;;17.25;81.66;99587.41;4992279;28;108700;-72
2023/11/13 15:10:17;;;;;;;5.15;1.60;;;;;;;17.30;81.07;99587.78;4996729;28;124598;-72
2023/11/13 15:12:46;;;;;;;7.10;1.60;;;;;;;17.34;80.71;99592.88;4997192;28;123899;-72
2023/11/13 15:15:15;;;;;;;8.15;2.30;;;;;;;17.37;80.14;99597.94;5000826;28;107405;-72
2023/11/13 15:17:45;;;;;;;4.78;1.70;;;;;;;17.38;79.66;99596.94;5006613;28;107226;-70
2023/11/13 15:20:17;;;;;;;7.38;2.15;;;;;;;17.39;79.22;99601.31;4989795;28;123319;-70
2023/11/13 15:22:51;;;;;;;12.18;2.00;;;;;;;17.41;78.40;99615.41;5001435;28;125175;-70
2023/11/13 15:25:38;;;;;;;9.02;1.75;;;;;;;17.41;77.96;99605.53;4997403;28;107312;-70
2023/11/13 15:28:06;;;;;;;9.82;2.13;;;;;;;17.40;77.48;99616.38;4999042;28;107166;-70
2023/11/13 15:30:34;;;;;;;15.02;2.40;;;;;;;17.39;76.82;99622.75;4996119;28;124555;-70
2023/11/13 15:33:03;;;;;;;7.63;2.10;;;;;;;17.36;76.30;99617.66;4999775;28;123855;-70
2023/11/13 15:35:32;;;;;;;7.18;2.00;;;;;;;17.35;75.82;99615.94;4994625;28;108031;-70
2023/11/13 15:38:00;;;;;;;8.63;2.00;;;;;;;17.32;75.26;99623.28;4990148;28;107155;-70
2023/11/13 15:40:30;;;;;;;8.60;2.00;;;;;;;17.27;74.90;99620.22;4977223;28;124311;-70
2023/11/13 15:42:57;;;;;;;7.55;1.90;;;;;;;17.25;74.61;99615.97;4978808;28;122903;-70
2023/11/13 15:45:24;;;;;;;11.20;2.10;;;;;;;17.21;74.20;99631.47;4985441;28;107591;-70
2023/11/13 15:47:53;;;;;;;12.15;2.05;;;;;;;17.17;74.17;99635.41;4988396;28;107258;-69
2023/11/13 15:50:21;;;;;;;10.88;2.30;;;;;;;17.13;73.88;99639.38;4987509;28;123151;-69
2023/11/13 15:52:48;;;;;;;12.32;2.20;;;;;;;17.09;73.64;99654.00;4985005;28;123705;-69
2023/11/13 15:55:16;;;;;;;8.90;1.92;;;;;;;17.06;73.26;99655.13;4989519;28;107192;-69
2023/11/13 15:57:43;;;;;;;13.27;2.38;;;;;;;17.03;72.83;99666.13;4991982;28;107412;-69
2023/11/13 16:00:12;;;;;;;15.60;2.58;;;;;;;16.99;72.43;99669.19;4985582;28;124475;-70
2023/11/13 16:02:44;;;;;;;8.48;2.05;;;;;;;16.96;72.30;99680.19;4984186;28;124470;-69
2023/11/13 16:05:12;;;;;;;11.93;2.55;;;;;;;16.91;72.22;99684.13;4981663;28;106632;-69
2023/11/13 16:07:39;;;;;;;9.40;1.75;;;;;;;16.88;72.10;99681.72;4985820;28;107337;-69
2023/11/13 16:10:07;;;;;;;10.57;2.38;;;;;;;16.86;71.82;99702.41;4978170;28;124476;-69
2023/11/13 16:12:35;;;;;;;11.35;2.65;;;;;;;16.83;71.75;99694.66;4985217;28;122887;-69
2023/11/13 16:15:03;;;;;;;14.95;2.70;;;;;;;16.79;71.50;99695.88;4986370;28;108096;-69
2023/11/13 16:17:34;;;;;;;17.33;2.50;;;;;;;16.78;71.02;99709.38;4980606;28;107621;-69
2023/11/13 16:20:08;;;;;;;12.07;2.40;;;;;;;16.75;71.06;99710.50;4987377;28;123172;-69
2023/11/13 16:22:37;;;;;;;14.27;2.40;;;;;;;16.73;70.97;99718.66;4986156;28;123585;-69
2023/11/13 16:25:05;;;;;;;9.50;2.35;;;;;;;16.71;70.76;99720.63;4984651;28;107763;-70
2023/11/13 16:27:36;;;;;;;13.77;2.65;;;;;;;16.69;70.49;99721.75;4974315;28;107315;-70
2023/11/13 16:30:06;;;;;;;14.73;2.58;;;;;;;16.68;70.05;99736.94;4975810;28;123168;-70
2023/11/13 16:32:34;;;;;;;18.10;3.00;;;;;;;16.65;70.01;99744.38;4988477;28;124127;-70
2023/11/13 16:35:03;;;;;;;12.90;2.63;;;;;;;16.63;69.69;99743.66;4978245;28;107212;-70
2023/11/13 16:37:31;;;;;;;16.35;2.63;;;;;;;16.63;69.49;99749.03;4985671;28;107414;-70
2023/11/13 16:39:59;;;;;;;12.88;2.67;;;;;;;16.61;69.29;99750.97;4977394;28;125919;-69
2023/11/13 16:42:27;;;;;;;14.88;3.22;;;;;;;16.61;68.98;99750.97;4986265;28;124940;-70
2023/11/13 16:44:54;;;;;;;13.23;2.92;;;;;;;16.57;68.57;99760.25;4984384;28;107759;-70
2023/11/13 16:47:22;;;;;;;13.65;3.10;;;;;;;16.54;68.34;99762.22;4979027;28;107281;-70
2023/11/13 16:49:50;;;;;;;16.42;3.22;;;;;;;16.52;68.12;99769.53;4974133;28;123525;-69
2023/11/13 16:52:18;;;;;;;15.80;3.15;;;;;;;16.49;67.86;99771.63;4978799;28;123831;-70
2023/11/13 16:54:46;;;;;;;12.82;2.80;;;;;;;16.46;67.56;99764.72;4985282;28;107714;-70
2023/11/13 16:57:14;;;;;;;18.83;3.38;;;;;;;16.45;67.25;99779.06;5011434;28;106440;-69
2023/11/13 16:59:42;;;;;;;20.50;3.22;;;;;;;16.42;66.76;99790.00;4982625;28;124271;-69
2023/11/13 17:02:09;;;;;;;16.08;3.30;;;;;;;16.39;66.29;99790.28;4980973;28;123857;-70
2023/11/13 17:04:37;;;;;;;24.88;4.35;;;;;;;16.38;66.30;99809.97;4979261;28;107275;-69
2023/11/13 17:07:04;;;;;;;20.33;3.50;;;;;;;16.35;65.80;99820.94;4980130;28;107330;-70
2023/11/13 17:09:31;;;;;;;12.85;3.17;;;;;;;16.33;65.88;99829.06;4980205;28;123875;-69
2023/11/13 17:11:59;;;;;;;18.75;3.28;;;;;;;16.30;65.32;99839.19;4980813;28;124009;-69
2023/11/13 17:14:26;;;;;;;15.68;3.20;;;;;;;16.27;65.15;99839.44;4980121;28;107884;-69
2023/11/13 17:16:53;;;;;;;19.08;3.47;;;;;;;16.23;65.00;99843.34;4988726;28;107308;-69
2023/11/13 17:19:21;;;;;;;16.83;3.25;;;;;;;16.20;65.21;99843.59;4983173;28;124123;-70
2023/11/13 17:21:49;;;;;;;21.92;3.45;;;;;;;16.15;64.83;99852.84;4983930;28;122857;-69
2023/11/13 17:24:16;;;;;;;21.90;3.65;;;;;;;16.12;64.90;99853.13;4965584;28;106735;-69
2023/11/13 17:26:44;;;;;;;28.45;3.70;;;;;;;16.09;64.92;99853.38;4980453;28;107550;-69
2023/11/13 17:29:11;;;;;;;18.83;3.67;;;;;;;16.08;64.84;99850.81;4975969;28;124030;-69
2023/11/13 17:31:39;;;;;;;18.83;3.67;;;;;;;16.05;64.61;99851.94;4989747;28;124693;-69
2023/11/13 17:34:08;;;;;;;20.05;2.97;;;;;;;16.02;64.68;99859.34;4983306;28;107662;-69
2023/11/13 17:36:35;;;;;;;24.75;3.40;;;;;;;15.99;64.15;99862.28;4985903;28;108192;-70
2023/11/13 17:39:04;;;;;;;19.73;3.50;;;;;;;15.94;64.22;99870.69;4985662;28;124103;-69
2023/11/13 17:41:32;;;;;;;18.58;3.50;;;;;;;15.91;64.22;99865.59;4978938;28;124099;-69
2023/11/13 17:43:59;;;;;;;20.27;3.60;;;;;;;15.86;64.11;99874.00;4978100;28;108381;-69
2023/11/13 17:46:27;;;;;;;19.55;3.85;;;;;;;15.82;64.13;99872.53;4985932;28;106400;-69
2023/11/13 17:48:54;;;;;;;20.20;3.30;;;;;;;15.77;63.91;99875.59;4980235;28;123972;-69
2023/11/13 17:51:23;;;;;;;21.15;3.90;;;;;;;15.73;63.86;99868.81;4980307;28;124480;-69
2023/11/13 17:53:51;;;;;;;18.45;3.03;;;;;;;15.69;63.92;99888.69;4977199;28;107718;-69
2023/11/13 17:56:18;;;;;;;23.10;3.20;;;;;;;15.64;63.80;99896.22;4981828;28;106635;-69
2023/11/13 17:58:46;;;;;;;14.80;3.40;;;;;;;15.61;63.74;99890.28;4981436;28;124685;-69
2023/11/13 18:01:13;;;;;;;15.70;2.75;;;;;;;15.58;63.59;99896.72;4989160;28;123971;-69
2023/11/13 18:03:43;;;;;;;16.63;3.35;;;;;;;15.54;63.75;99903.28;4985751;28;108167;-69
2023/11/13 18:06:11;;;;;;;16.90;3.10;;;;;;;15.52;63.79;99910.56;4982444;28;106968;-69
2023/11/13 18:08:38;;;;;;;14.85;3.40;;;;;;;15.48;63.82;99909.97;4981913;28;124149;-69
2023/11/13 18:11:05;;;;;;;17.50;3.40;;;;;;;15.46;63.70;99913.72;4978641;28;123820;-69
2023/11/13 18:13:33;;;;;;;18.67;3.10;;;;;;;15.44;63.66;99926.34;4982878;28;107688;-69
2023/11/13 18:16:01;;;;;;;11.23;2.85;;;;;;;15.40;63.77;99925.75;4981417;28;106238;-69
2023/11/13 18:18:31;;;;;;;19.77;3.17;;;;;;;15.37;63.71;99921.50;4979402;28;124307;-69
2023/11/13 18:20:59;;;;;;;16.30;3.13;;;;;;;15.34;63.76;99921.75;4986311;28;124340;-70
2023/11/13 18:23:26;;;;;;;15.57;2.72;;;;;;;15.31;63.74;99919.34;4979785;28;107413;-69
2023/11/13 18:25:57;;;;;;;19.77;3.13;;;;;;;15.28;63.85;99927.56;4986758;28;106302;-69
2023/11/13 18:28:27;;;;;;;18.33;3.40;;;;;;;15.27;63.87;99930.34;4986771;28;124111;-69
2023/11/13 18:30:57;;;;;;;19.90;3.83;;;;;;;15.24;63.98;99931.47;4983507;28;124527;-69
2023/11/13 18:33:28;;;;;;;18.17;3.10;;;;;;;15.23;63.83;99923.56;4979773;28;108557;-69
2023/11/13 18:35:57;;;;;;;20.92;3.38;;;;;;;15.21;63.85;99931.69;4988985;28;108577;-69
2023/11/13 18:38:25;;;;;;;19.95;3.45;;;;;;;15.19;63.82;99933.63;4981982;28;123054;-69
2023/11/13 18:40:53;;;;;;;17.63;3.67;;;;;;;15.17;63.81;99940.91;4982469;28;122075;-69
2023/11/13 18:43:21;;;;;;;23.80;3.67;;;;;;;15.15;63.85;99932.19;4978008;28;110111;-69
2023/11/13 18:45:51;;;;;;;23.70;3.42;;;;;;;15.12;63.78;99929.75;4986158;28;109341;-69
2023/11/13 18:48:19;;;;;;;22.00;3.53;;;;;;;15.11;63.68;99936.06;4987490;28;124050;-69
2023/11/13 18:50:47;;;;;;;19.55;3.45;;;;;;;15.09;64.02;99946.00;4980301;28;123205;-69
2023/11/13 18:53:15;;;;;;;17.65;3.30;;;;;;;15.09;63.77;99932.69;4979616;28;110084;-69
2023/11/13 18:55:45;;;;;;;26.02;3.92;;;;;;;15.08;63.84;99946.97;4985238;28;108111;-69
2023/11/13 18:58:13;;;;;;;15.63;2.95;;;;;;;15.06;63.78;99943.56;4988234;28;123361;-69
2023/11/13 19:00:40;;;;;;;22.85;3.83;;;;;;;15.05;63.68;99950.72;4983863;28;124281;-69
2023/11/13 19:03:08;;;;;;;18.63;3.22;;;;;;;15.04;63.85;99948.19;4976803;28;108176;-69
2023/11/13 19:05:36;;;;;;;19.00;3.63;;;;;;;15.02;63.69;99947.44;5008478;27;108326;-69
2023/11/13 19:08:04;;;;;;;25.90;3.58;;;;;;;15.02;63.71;99950.13;4977280;28;124551;-69
2023/11/13 19:10:31;;;;;;;19.58;3.22;;;;;;;15.01;63.74;99951.06;4981543;28;123942;-69
2023/11/13 19:13:01;;;;;;;20.20;3.60;;;;;;;14.97;63.62;99962.00;4989118;28;109284;-68
2023/11/13 19:15:29;;;;;;;20.17;3.22;;;;;;;14.96;63.59;99957.63;4974633;28;108814;-69
2023/11/13 19:17:56;;;;;;;16.45;3.13;;;;;;;14.96;63.79;99968.28;4975015;28;123751;-69
2023/11/13 19:20:26;;;;;;;21.88;3.75;;;;;;;14.94;63.88;99967.56;4981341;28;124372;-69
2023/11/13 19:22:59;;;;;;;19.48;2.97;;;;;;;14.92;63.58;99980.16;4985725;28;109232;-69
2023/11/13 19:25:27;;;;;;;25.35;3.35;;;;;;;14.92;63.55;99969.50;4990224;28;108933;-69
2023/11/13 19:27:54;;;;;;;22.27;3.63;;;;;;;14.91;63.67;99978.44;4987408;28;122622;-69
2023/11/13 19:30:22;;;;;;;25.33;3.90;;;;;;;14.91;63.77;99989.13;4979223;28;123690;-69
2023/11/13 19:32:50;;;;;;;19.73;3.47;;;;;;;14.91;63.75;99989.13;4983524;28;109375;-69
2023/11/13 19:35:29;;;;;;;19.63;3.55;;;;;;;14.92;63.75;99990.81;4980592;28;110241;-69
2023/11/13 19:37:56;;;;;;;20.00;3.38;;;;;;;14.91;63.63;99989.13;4981974;28;123985;-69
2023/11/13 19:40:24;;;;;;;21.15;3.40;;;;;;;14.91;63.72;99989.13;4983142;28;124232;-69
2023/11/13 19:42:51;;;;;;;22.52;4.00;;;;;;;14.91;63.74;99999.78;4979925;28;109321;-69
2023/11/13 19:45:20;;;;;;;14.25;3.22;;;;;;;14.92;63.68;99998.81;4975838;28;109235;-69
2023/11/13 19:47:48;;;;;;;20.85;3.97;;;;;;;14.92;63.72;100001.50;4988184;28;124080;-69
2023/11/13 19:50:15;;;;;;;21.20;3.63;;;;;;;14.92;63.61;100000.66;4979508;28;123991;-69
2023/11/13 19:52:44;;;;;;;27.13;3.90;;;;;;;14.91;63.83;100007.78;4978546;28;110093;-68
2023/11/13 19:55:15;;;;;;;19.50;3.60;;;;;;;14.92;63.72;100006.81;4984595;28;109024;-68
2023/11/13 19:57:43;;;;;;;26.13;4.50;;;;;;;14.91;63.57;99999.78;4983593;28;124027;-69
2023/11/13 20:00:16;;;;;;;28.58;4.63;;;;;;;14.92;63.68;100017.50;4990367;28;124524;-68
2023/11/13 20:02:44;;;;;;;22.05;4.47;;;;;;;14.92;63.54;100014.81;4978793;28;109488;-69
2023/11/13 20:05:12;;;;;;;21.77;4.20;;;;;;;14.91;63.49;100021.09;4980490;28;108364;-70
2023/11/13 20:07:39;;;;;;;25.58;4.18;;;;;;;14.88;63.58;100016.03;4977700;28;124489;-69
2023/11/13 20:10:07;;;;;;;22.02;3.97;;;;;;;14.88;63.48;100031.16;4984178;28;124023;-69
2023/11/13 20:12:35;;;;;;;26.85;4.43;;;;;;;14.86;63.72;100033.97;4987805;28;109144;-70
2023/11/13 20:15:03;;;;;;;23.60;4.63;;;;;;;14.86;63.46;100033.09;4993084;28;109269;-69
2023/11/13 20:17:30;;;;;;;23.20;4.50;;;;;;;14.85;63.80;100037.59;4986355;28;123494;-69
2023/11/13 20:19:58;;;;;;;21.15;4.03;;;;;;;14.84;63.44;100030.53;4985342;28;122917;-69
2023/11/13 20:22:25;;;;;;;24.02;4.30;;;;;;;14.83;63.42;100039.50;4976677;28;110551;-69
2023/11/13 20:24:53;;;;;;;24.45;4.60;;;;;;;14.82;63.56;100043.13;4985427;28;109058;-69
2023/11/13 20:27:22;;;;;;;23.48;3.92;;;;;;;14.82;63.42;100037.81;4986381;28;124542;-69
2023/11/13 20:29:49;;;;;;;25.98;4.47;;;;;;;14.80;63.48;100042.41;4985772;28;124682;-69
2023/11/13 20:32:31;;;;;;;19.85;3.50;;;;;;;14.81;63.59;100046.78;4984785;28;109006;-68
2023/11/13 20:34:59;;;;;;;26.80;4.10;;;;;;;14.79;63.36;100054.06;4978575;28;109119;-69
2023/11/13 20:37:27;;;;;;;22.02;3.70;;;;;;;14.80;63.51;100055.72;4989088;28;123108;-69
2023/11/13 20:39:54;;;;;;;17.45;3.65;;;;;;;14.81;63.55;100041.44;4981029;28;124175;-69
2023/11/13 20:42:21;;;;;;;21.05;3.45;;;;;;;14.81;63.48;100049.44;4990527;28;109572;-69
2023/11/13 20:44:49;;;;;;;19.90;3.75;;;;;;;14.81;63.54;100052.13;4989539;28;108337;-69
2023/11/13 20:47:16;;;;;;;29.05;4.90;;;;;;;14.81;63.59;100046.78;4988217;28;124400;-69
2023/11/13 20:49:44;;;;;;;28.85;3.97;;;;;;;14.82;63.64;100048.47;4978418;28;124304;-69
2023/11/13 20:52:11;;;;;;;20.08;3.50;;;;;;;14.85;63.62;100048.25;4977815;28;109214;-63
2023/11/13 20:54:38;;;;;;;25.48;3.92;;;;;;;14.86;63.38;100052.63;4974161;28;110010;-63
2023/11/13 20:57:05;;;;;;;24.30;3.65;;;;;;;14.87;63.64;100051.66;4972804;28;124484;-63
2023/11/13 20:59:33;;;;;;;24.15;3.50;;;;;;;14.89;63.52;100048.88;4980841;28;124108;-63
2023/11/13 21:02:01;;;;;;;21.58;4.15;;;;;;;14.90;63.34;100056.75;4979516;28;109422;-63
2023/11/13 21:04:28;;;;;;;21.63;3.92;;;;;;;14.92;63.50;100059.31;4979143;28;109552;-63
2023/11/13 21:06:56;;;;;;;21.25;3.55;;;;;;;14.94;63.47;100047.56;4985451;28;124124;-63
2023/11/13 21:09:23;;;;;;;20.98;3.63;;;;;;;14.95;63.46;100064.38;4970231;28;121028;-63
2023/11/13 21:11:51;;;;;;;20.17;3.90;;;;;;;14.95;63.40;100059.91;4987203;28;110004;-63
2023/11/13 21:14:18;;;;;;;23.73;3.83;;;;;;;14.97;63.46;100074.00;4983699;28;109759;-63
2023/11/13 21:16:45;;;;;;;18.42;3.42;;;;;;;14.99;63.49;100077.38;4982732;28;124043;-63
2023/11/13 21:19:13;;;;;;;21.23;2.90;;;;;;;15.03;63.33;100087.81;4975740;28;124384;-63
2023/11/13 21:21:40;;;;;;;19.50;3.45;;;;;;;15.05;63.72;100080.53;4979108;28;109900;-63
2023/11/13 21:24:09;;;;;;;19.88;3.47;;;;;;;15.08;63.38;100074.97;4982280;28;109313;-63
2023/11/13 21:26:36;;;;;;;21.23;3.78;;;;;;;15.10;63.19;100086.38;4993673;28;123088;-63
2023/11/13 21:29:03;;;;;;;23.80;3.47;;;;;;;15.11;63.18;100069.41;4979173;28;124718;-63
2023/11/13 21:31:31;;;;;;;28.33;4.30;;;;;;;15.12;63.19;100071.09;4983222;28;109498;-63
2023/11/13 21:33:58;;;;;;;24.70;4.07;;;;;;;15.14;63.29;100071.84;4978938;28;107706;-63
2023/11/13 21:36:25;;;;;;;27.52;3.78;;;;;;;15.15;63.25;100081.56;4975273;28;124853;-63
2023/11/13 21:38:53;;;;;;;21.27;3.78;;;;;;;15.17;63.31;100080.44;4987740;28;123100;-63
2023/11/13 21:41:20;;;;;;;23.02;4.43;;;;;;;15.20;63.22;100074.06;4980593;28;109137;-63
2023/11/13 21:43:48;;;;;;;21.88;3.78;;;;;;;15.21;63.12;100081.06;4984212;28;108925;-63
2023/11/13 21:46:16;;;;;;;24.55;3.92;;;;;;;15.24;63.35;100085.31;4978308;28;123943;-63
2023/11/13 21:48:43;;;;;;;25.05;3.95;;;;;;;15.25;63.29;100093.19;4981735;28;124069;-63
2023/11/13 21:51:11;;;;;;;24.02;4.15;;;;;;;15.27;63.18;100091.25;4986400;28;110250;-63
2023/11/13 21:53:38;;;;;;;27.15;4.10;;;;;;;15.28;63.04;100098.31;5011581;28;108029;-63
2023/11/13 21:56:06;;;;;;;26.42;4.10;;;;;;;15.29;63.02;100094.66;4982022;28;126604;-63
2023/11/13 21:58:33;;;;;;;28.05;3.95;;;;;;;15.31;63.16;100092.75;4976927;28;122970;-63
2023/11/13 22:01:01;;;;;;;29.25;4.60;;;;;;;15.32;62.99;100081.09;4982036;28;110691;-63
2023/11/13 22:03:28;;;;;;;17.67;3.70;;;;;;;15.33;62.88;100073.94;4982962;28;109839;-63
2023/11/13 22:05:57;;;;;;;20.42;4.05;;;;;;;15.35;63.04;100083.53;4981582;28;123443;-63
2023/11/13 22:08:24;;;;;;;27.25;4.18;;;;;;;15.35;62.91;100094.22;4975461;28;124537;-64
2023/11/13 22:10:52;;;;;;;24.85;4.25;;;;;;;15.36;62.86;100079.03;4973947;28;109861;-63
2023/11/13 22:13:19;;;;;;;26.88;3.83;;;;;;;15.36;63.16;100090.56;4982789;28;109030;-63
2023/11/13 22:15:50;;;;;;;28.27;4.25;;;;;;;15.36;63.10;100095.91;4975962;28;124383;-63
2023/11/13 22:18:18;;;;;;;28.13;3.78;;;;;;;15.36;62.70;100089.72;4978009;28;124849;-63
2023/11/13 22:20:45;;;;;;;23.23;3.85;;;;;;;15.36;62.84;100089.72;4983062;28;109214;-63
2023/11/13 22:23:13;;;;;;;21.88;3.95;;;;;;;15.35;62.75;100104.88;4991366;28;109028;-63
2023/11/13 22:25:41;;;;;;;25.80;3.85;;;;;;;15.35;62.92;100094.22;4972636;28;124734;-63
2023/11/13 22:28:08;;;;;;;29.67;3.88;;;;;;;15.35;62.61;100099.53;4971592;28;123571;-63
2023/11/13 22:30:37;;;;;;;25.65;4.18;;;;;;;15.36;62.80;100106.56;4981534;28;109286;-63
2023/11/13 22:33:04;;;;;;;24.65;4.40;;;;;;;15.37;62.90;100094.94;4976733;28;109258;-63
2023/11/13 22:35:32;;;;;;;19.08;4.03;;;;;;;15.37;62.59;100097.59;4971678;28;123082;-63
2023/11/13 22:37:59;;;;;;;23.88;4.43;;;;;;;15.38;62.80;100099.28;4970032;28;124174;-63
2023/11/13 22:40:26;;;;;;;30.27;4.35;;;;;;;15.39;62.64;100100.16;4970911;28;109366;-63
2023/11/13 22:42:54;;;;;;;25.60;4.22;;;;;;;15.37;62.64;100102.94;4973151;28;108982;-63
2023/11/13 22:45:21;;;;;;;27.35;3.95;;;;;;;15.37;62.61;100097.59;4975971;28;124058;-63
2023/11/13 22:47:49;;;;;;;21.75;3.65;;;;;;;15.38;62.64;100088.63;4983737;28;124490;-63
2023/11/13 22:50:16;;;;;;;30.40;4.30;;;;;;;15.38;62.63;100085.94;4987229;28;109301;-63
2023/11/13 22:52:44;;;;;;;20.77;4.35;;;;;;;15.38;62.39;100083.28;4984325;28;110334;-63
2023/11/13 22:55:12;;;;;;;22.13;4.25;;;;;;;15.40;62.49;100090.34;4989383;28;123084;-63
2023/11/13 22:57:39;;;;;;;26.83;4.00;;;;;;;15.40;62.60;100079.66;4983979;28;124142;-63
2023/11/13 23:00:25;;;;;;;24.83;4.10;;;;;;;15.41;62.43;100081.34;4981228;28;109184;-63
2023/11/13 23:02:55;;;;;;;22.55;3.80;;;;;;;15.40;62.52;100093.00;4975681;28;109045;-63
2023/11/13 23:05:23;;;;;;;26.38;3.88;;;;;;;15.40;62.27;100079.66;4976167;28;124074;-63
2023/11/13 23:07:51;;;;;;;24.90;3.83;;;;;;;15.40;62.47;100090.34;4982440;28;122953;-63
2023/11/13 23:10:18;;;;;;;26.25;3.95;;;;;;;15.41;62.64;100092.00;4981630;28;109432;-63
2023/11/13 23:12:46;;;;;;;26.73;4.15;;;;;;;15.41;62.44;100098.22;4979580;28;110122;-64
2023/11/13 23:15:13;;;;;;;24.15;4.30;;;;;;;15.42;62.52;100091.06;4986069;28;124117;-63
2023/11/13 23:17:41;;;;;;;28.98;3.97;;;;;;;15.41;62.56;100092.00;4990667;28;124340;-63
2023/11/13 23:20:09;;;;;;;23.77;4.05;;;;;;;15.41;62.35;100102.69;4985328;28;108164;-64
2023/11/13 23:22:37;;;;;;;27.27;4.78;;;;;;;15.41;62.33;100118.69;4984928;28;109055;-64
2023/11/13 23:25:05;;;;;;;30.20;3.85;;;;;;;15.40;62.31;100101.00;4986506;28;124177;-63
2023/11/13 23:27:32;;;;;;;25.23;4.60;;;;;;;15.40;62.36;100109.84;4975935;28;123085;-64
2023/11/13 23:29:59;;;;;;;26.15;3.85;;;;;;;15.38;62.46;100104.63;4983820;28;109556;-64
2023/11/13 23:32:27;;;;;;;30.42;4.32;;;;;;;15.37;62.27;100094.94;4984413;28;108921;-63
2023/11/13 23:34:54;;;;;;;26.98;3.60;;;;;;;15.37;62.35;100097.59;4978202;28;124932;-63
2023/11/13 23:37:22;;;;;;;26.50;4.22;;;;;;;15.38;62.39;100109.97;4983816;28;124082;-63
2023/11/13 23:39:59;;;;;;;23.42;4.03;;;;;;;15.37;62.36;100105.63;4986957;28;111135;-64
2023/11/13 23:42:27;;;;;;;24.55;4.15;;;;;;;15.37;62.15;100096.78;4985981;28;109728;-64
2023/11/13 23:44:55;;;;;;;21.95;3.50;;;;;;;15.37;62.28;100102.94;4982492;28;124641;-63
2023/11/13 23:47:22;;;;;;;26.05;4.13;;;;;;;15.37;62.33;100097.59;4975564;28;123333;-64
2023/11/13 23:49:50;;;;;;;24.95;4.40;;;;;;;15.37;62.34;100102.09;4993168;28;109047;-64
2023/11/13 23:52:17;;;;;;;28.63;4.85;;;;;;;15.36;62.21;100095.91;4983518;28;108940;-64
2023/11/13 23:54:44;;;;;;;28.88;4.57;;;;;;;15.36;62.38;100101.22;4976688;28;124352;-64
2023/11/13 23:57:11;;;;;;;26.80;3.75;;;;;;;15.36;62.27;100095.91;4988067;28;124423;-64
2023/11/13 23:59:39;;;;;;;24.10;4.00;;;;;;;15.35;62.50;100102.22;4982614;28;108848;-64
